Time;durP1;ratioP1;P1;durP2;ratioP2;P2;SDS_P1;SDS_P2;PMS_P1;PMS_P2;Temp;Humidity;BMP_temperature;BMP_pressure;BME280_temperature;BME280_humidity;BME280_pressure;Samples;Min_cycle;Max_cycle;Signal;HPM_P1;HPM_P2
2020/12/17 00:01:19;;;;;;;51.28;28.90;;;8.60;93.60;;;;;;5022577;28;20025;-76
2020/12/17 00:03:45;;;;;;;58.17;28.65;;;8.70;93.70;;;;;;5041143;28;20060;-75
2020/12/17 00:06:12;;;;;;;56.90;29.75;;;8.70;93.50;;;;;;5024110;28;20036;-74
2020/12/17 00:08:38;;;;;;;51.05;27.50;;;8.60;93.60;;;;;;5042980;28;20044;-75
2020/12/17 00:11:03;;;;;;;52.33;28.15;;;8.60;93.60;;;;;;5023610;28;20029;-76
2020/12/17 00:13:29;;;;;;;54.47;28.73;;;8.60;93.70;;;;;;5008694;28;20180;-75
2020/12/17 00:15:56;;;;;;;55.55;28.73;;;8.60;93.60;;;;;;5068673;22;20123;-76
2020/12/17 00:18:21;;;;;;;54.72;27.73;;;8.60;93.70;;;;;;5032022;28;20305;-76
2020/12/17 00:20:47;;;;;;;50.22;27.33;;;8.50;93.70;;;;;;5017075;28;20044;-76
2020/12/17 00:23:12;;;;;;;54.80;27.92;;;8.50;93.70;;;;;;5017937;28;20086;-77
2020/12/17 00:25:40;;;;;;;53.63;27.63;;;8.50;93.70;;;;;;5025341;28;20025;-76
2020/12/17 00:28:06;;;;;;;50.70;25.77;;;8.60;93.70;;;;;;5026210;28;20056;-76
2020/12/17 00:30:31;;;;;;;52.03;26.23;;;8.60;93.70;;;;;;5031131;28;20040;-76
2020/12/17 00:32:57;;;;;;;55.20;28.65;;;8.50;93.60;;;;;;5024974;28;20669;-76
2020/12/17 00:35:23;;;;;;;48.67;26.23;;;8.50;93.60;;;;;;5017974;28;20029;-76
2020/12/17 00:37:48;;;;;;;49.45;26.35;;;8.50;93.60;;;;;;5024833;28;20033;-76
2020/12/17 00:40:16;;;;;;;44.97;24.77;;;8.50;93.50;;;;;;5018462;28;20017;-76
2020/12/17 00:42:46;;;;;;;50.47;25.25;;;8.50;93.60;;;;;;5033423;28;20119;-76
2020/12/17 00:45:13;;;;;;;47.90;25.52;;;8.50;93.60;;;;;;5017224;28;20029;-76
2020/12/17 00:47:39;;;;;;;47.17;26.80;;;8.60;93.50;;;;;;5033372;28;20396;-77
2020/12/17 00:50:07;;;;;;;51.40;25.83;;;8.50;93.50;;;;;;5033830;28;20057;-76
2020/12/17 00:52:40;;;;;;;51.13;26.38;;;8.50;93.50;;;;;;5035880;28;20055;-75
2020/12/17 00:55:06;;;;;;;46.40;25.98;;;8.50;93.40;;;;;;5024576;28;20127;-77
2020/12/17 00:57:32;;;;;;;49.90;26.02;;;8.50;93.50;;;;;;5032803;28;20063;-77
2020/12/17 00:59:58;;;;;;;46.47;23.88;;;8.50;93.50;;;;;;5027691;28;20049;-76
2020/12/17 01:02:23;;;;;;;47.03;25.20;;;8.50;93.50;;;;;;5043747;28;20488;-77
2020/12/17 01:04:49;;;;;;;50.75;25.48;;;8.50;93.50;;;;;;5043884;28;20032;-76
2020/12/17 01:07:16;;;;;;;47.67;24.55;;;8.50;93.30;;;;;;5034522;28;20068;-77
2020/12/17 01:09:42;;;;;;;50.60;25.27;;;8.50;93.20;;;;;;5019949;28;20500;-77
2020/12/17 01:12:08;;;;;;;47.45;25.10;;;8.40;93.20;;;;;;5029018;28;20032;-76
2020/12/17 01:14:34;;;;;;;48.97;24.80;;;8.50;93.30;;;;;;5056445;28;20083;-77
2020/12/17 01:17:01;;;;;;;51.40;25.70;;;8.40;93.20;;;;;;5036173;28;20037;-76
2020/12/17 01:19:27;;;;;;;47.47;23.98;;;8.40;93.40;;;;;;5038760;28;20013;-77
2020/12/17 01:21:53;;;;;;;52.00;26.20;;;8.40;93.60;;;;;;5020509;28;20653;-76
2020/12/17 01:24:19;;;;;;;48.13;24.95;;;8.40;93.20;;;;;;5018457;28;20053;-76
2020/12/17 01:26:45;;;;;;;48.08;25.27;;;8.40;93.30;;;;;;5021046;28;20538;-77
2020/12/17 01:29:10;;;;;;;43.40;23.40;;;8.40;93.30;;;;;;5017957;28;20029;-77
2020/12/17 01:31:36;;;;;;;42.40;23.33;;;8.40;93.30;;;;;;5031687;28;20484;-76
2020/12/17 01:34:02;;;;;;;47.85;24.27;;;8.40;93.40;;;;;;5049715;28;20027;-76
2020/12/17 01:36:27;;;;;;;46.33;24.02;;;8.30;93.40;;;;;;5029422;28;20025;-76
2020/12/17 01:38:53;;;;;;;47.63;25.95;;;8.40;93.40;;;;;;5035537;28;20028;-76
2020/12/17 01:41:19;;;;;;;43.80;23.88;;;8.30;93.20;;;;;;5050721;28;20024;-77
2020/12/17 01:43:46;;;;;;;46.28;24.30;;;8.30;93.30;;;;;;5036395;28;20078;-76
2020/12/17 01:46:14;;;;;;;46.70;24.02;;;8.30;93.20;;;;;;5022749;28;20074;-76
2020/12/17 01:48:41;;;;;;;46.80;24.45;;;8.30;93.20;;;;;;5042153;28;20551;-77
2020/12/17 01:51:08;;;;;;;43.50;22.58;;;8.30;93.30;;;;;;5056418;28;20025;-76
2020/12/17 01:53:41;;;;;;;46.30;24.27;;;8.30;93.20;;;;;;5027311;28;20052;-77
2020/12/17 01:56:25;;;;;;;41.83;21.95;;;8.30;93.10;;;;;;5039198;28;20970;-77
2020/12/17 01:59:07;;;;;;;45.47;24.52;;;8.30;93.20;;;;;;5011909;28;20021;-77
2020/12/17 02:01:33;;;;;;;48.42;25.02;;;8.20;93.10;;;;;;5023404;28;20026;-76
2020/12/17 02:04:00;;;;;;;45.78;24.13;;;8.20;93.20;;;;;;5034932;28;20029;-77
2020/12/17 02:06:26;;;;;;;43.90;23.30;;;8.20;93.30;;;;;;5025472;28;20401;-77
2020/12/17 02:08:52;;;;;;;48.47;23.85;;;8.20;93.40;;;;;;5033501;28;20021;-76
2020/12/17 02:11:20;;;;;;;46.50;23.05;;;8.10;93.40;;;;;;5033907;28;20519;-76
2020/12/17 02:13:46;;;;;;;46.35;24.00;;;8.20;93.30;;;;;;5058274;28;20095;-77
2020/12/17 02:16:13;;;;;;;45.45;23.08;;;8.10;93.20;;;;;;5034770;28;20396;-77
2020/12/17 02:18:39;;;;;;;40.22;22.02;;;8.20;93.40;;;;;;5037720;28;20444;-76
2020/12/17 02:21:05;;;;;;;38.53;21.15;;;8.20;93.30;;;;;;5034943;28;20029;-75
2020/12/17 02:23:30;;;;;;;43.90;21.75;;;8.20;93.20;;;;;;5041167;28;20112;-76
2020/12/17 02:25:56;;;;;;;44.10;23.30;;;8.10;93.10;;;;;;5052386;28;20028;-76
2020/12/17 02:28:22;;;;;;;42.63;21.52;;;8.10;93.20;;;;;;5017827;28;20392;-76
2020/12/17 02:30:49;;;;;;;40.47;22.20;;;8.20;93.20;;;;;;5007666;28;20250;-76
2020/12/17 02:33:16;;;;;;;44.88;21.75;;;8.20;93.10;;;;;;5033782;28;20016;-76
2020/12/17 02:35:41;;;;;;;39.60;22.00;;;8.10;93.10;;;;;;5040144;28;20060;-76
2020/12/17 02:38:07;;;;;;;40.58;21.52;;;8.10;93.00;;;;;;5009843;28;20052;-76
2020/12/17 02:40:34;;;;;;;42.95;22.38;;;8.10;93.10;;;;;;5050239;28;20017;-77
2020/12/17 02:43:00;;;;;;;39.58;21.23;;;8.10;93.00;;;;;;5019639;28;20729;-76
2020/12/17 02:45:26;;;;;;;43.38;22.45;;;8.10;93.10;;;;;;5035528;28;20063;-76
2020/12/17 02:47:52;;;;;;;41.70;22.25;;;8.10;93.10;;;;;;5032628;28;20047;-76
2020/12/17 02:50:17;;;;;;;42.08;22.63;;;8.10;93.10;;;;;;5030515;28;20140;-76
2020/12/17 02:52:43;;;;;;;42.78;21.45;;;8.10;92.90;;;;;;5036264;28;20033;-76
2020/12/17 02:55:11;;;;;;;39.53;22.35;;;8.10;93.00;;;;;;5013574;28;20066;-76
2020/12/17 02:57:37;;;;;;;38.45;20.15;;;8.10;92.90;;;;;;5031998;28;20029;-77
2020/12/17 03:00:09;;;;;;;40.67;21.52;;;8.10;93.00;;;;;;5016268;28;20040;-77
2020/12/17 03:02:35;;;;;;;38.63;21.63;;;8.10;93.30;;;;;;5020266;28;20025;-77
2020/12/17 03:05:01;;;;;;;35.13;20.25;;;8.10;93.10;;;;;;5020269;28;20047;-76
2020/12/17 03:07:27;;;;;;;39.80;21.10;;;8.10;93.00;;;;;;5035819;28;20037;-76
2020/12/17 03:09:53;;;;;;;38.50;20.52;;;8.10;93.00;;;;;;5039150;28;20510;-76
2020/12/17 03:12:18;;;;;;;41.80;21.40;;;8.10;93.00;;;;;;5064204;28;20025;-76
2020/12/17 03:14:44;;;;;;;35.33;20.20;;;8.10;93.00;;;;;;5022657;28;20098;-77
2020/12/17 03:17:10;;;;;;;40.63;20.67;;;8.10;93.00;;;;;;5040887;28;20116;-77
2020/12/17 03:19:35;;;;;;;40.60;20.75;;;8.00;93.00;;;;;;5039961;28;20024;-77
2020/12/17 03:22:01;;;;;;;36.33;21.00;;;8.00;93.10;;;;;;5036662;28;20017;-76
2020/12/17 03:24:27;;;;;;;36.80;19.00;;;8.00;93.10;;;;;;5033739;28;20104;-76
2020/12/17 03:26:52;;;;;;;38.55;20.48;;;8.00;93.10;;;;;;5027478;28;20021;-75
2020/12/17 03:29:20;;;;;;;39.35;21.42;;;8.00;93.10;;;;;;5033629;28;20033;-76
2020/12/17 03:31:45;;;;;;;37.55;19.90;;;8.00;92.90;;;;;;5030223;28;20032;-76
2020/12/17 03:34:11;;;;;;;38.63;20.30;;;8.00;93.00;;;;;;5029089;28;20025;-76
2020/12/17 03:36:37;;;;;;;39.63;20.42;;;8.00;93.10;;;;;;5015953;28;20017;-77
2020/12/17 03:39:04;;;;;;;38.67;20.48;;;8.00;93.10;;;;;;5029466;28;20075;-76
2020/12/17 03:41:30;;;;;;;34.80;19.65;;;8.00;93.10;;;;;;5018160;28;20027;-76
2020/12/17 03:43:55;;;;;;;36.13;19.58;;;8.10;93.00;;;;;;5017917;28;20439;-77
2020/12/17 03:46:21;;;;;;;35.58;19.20;;;8.10;92.90;;;;;;5030985;28;20032;-76
2020/12/17 03:48:47;;;;;;;36.15;18.98;;;8.10;92.90;;;;;;5052026;28;20036;-76
2020/12/17 03:51:13;;;;;;;37.08;19.45;;;8.10;92.90;;;;;;5014993;28;20025;-76
2020/12/17 03:53:38;;;;;;;37.88;19.25;;;8.00;92.90;;;;;;5036241;28;20132;-76
2020/12/17 03:56:04;;;;;;;36.75;20.25;;;8.10;92.90;;;;;;5045081;28;20072;-76
2020/12/17 03:58:30;;;;;;;38.15;19.63;;;8.10;92.90;;;;;;5033627;28;20442;-76
2020/12/17 04:00:55;;;;;;;37.33;19.35;;;8.10;92.90;;;;;;5029040;28;20025;-76
2020/12/17 04:03:21;;;;;;;36.78;19.50;;;8.10;92.90;;;;;;5034839;28;20017;-75
2020/12/17 04:05:47;;;;;;;35.78;18.88;;;8.10;93.00;;;;;;5014568;28;20018;-76
2020/12/17 04:08:12;;;;;;;39.97;19.25;;;8.00;92.90;;;;;;5034871;28;20055;-76
2020/12/17 04:10:38;;;;;;;37.25;18.38;;;8.10;92.90;;;;;;5033543;28;20075;-76
2020/12/17 04:13:04;;;;;;;37.58;20.17;;;8.00;92.90;;;;;;5053865;28;20029;-77
2020/12/17 04:15:29;;;;;;;31.77;17.88;;;8.00;92.90;;;;;;5032632;28;20039;-76
2020/12/17 04:17:55;;;;;;;33.70;18.60;;;8.10;92.80;;;;;;5024168;28;20528;-76
2020/12/17 04:20:21;;;;;;;34.60;19.52;;;8.10;92.70;;;;;;5015611;28;20021;-76
2020/12/17 04:22:46;;;;;;;38.80;20.48;;;8.00;92.80;;;;;;5017287;28;20025;-77
2020/12/17 04:25:12;;;;;;;34.92;19.25;;;8.00;92.80;;;;;;5014881;28;20072;-77
2020/12/17 04:27:39;;;;;;;33.42;19.00;;;8.00;92.90;;;;;;5034364;28;20037;-76
2020/12/17 04:30:05;;;;;;;36.42;19.05;;;8.10;92.80;;;;;;5041390;28;20035;-76
2020/12/17 04:32:30;;;;;;;32.90;18.80;;;8.10;92.80;;;;;;5019193;28;20063;-76
2020/12/17 04:34:56;;;;;;;33.55;18.45;;;8.10;92.60;;;;;;5016743;28;20053;-76
2020/12/17 04:37:22;;;;;;;39.90;19.98;;;8.10;92.70;;;;;;5040574;28;20033;-76
2020/12/17 04:39:47;;;;;;;34.05;19.80;;;8.10;92.80;;;;;;5036767;28;20025;-75
2020/12/17 04:42:15;;;;;;;36.05;19.70;;;8.10;92.70;;;;;;5010903;28;20033;-76
2020/12/17 04:44:43;;;;;;;37.17;19.77;;;8.10;92.80;;;;;;5040246;28;20028;-76
2020/12/17 04:47:14;;;;;;;33.35;19.05;;;8.10;92.80;;;;;;5024450;28;20078;-76
2020/12/17 04:49:47;;;;;;;34.08;19.58;;;8.00;92.80;;;;;;5030097;28;20392;-76
2020/12/17 04:52:14;;;;;;;35.47;18.95;;;8.10;92.90;;;;;;5034322;28;20032;-76
2020/12/17 04:54:40;;;;;;;36.40;18.30;;;8.10;92.90;;;;;;5041873;28;20021;-76
2020/12/17 04:57:10;;;;;;;37.90;18.77;;;8.10;92.90;;;;;;5050787;28;20455;-76
2020/12/17 04:59:47;;;;;;;36.67;19.40;;;8.10;92.90;;;;;;5036469;28;20029;-76
2020/12/17 05:02:14;;;;;;;33.25;19.13;;;8.00;93.00;;;;;;5017482;28;20032;-76
2020/12/17 05:04:42;;;;;;;36.42;18.88;;;8.00;93.00;;;;;;5041403;28;20036;-76
2020/12/17 05:07:11;;;;;;;34.92;18.77;;;8.00;93.10;;;;;;5008890;28;20556;-76
2020/12/17 05:09:38;;;;;;;37.67;20.13;;;8.00;93.10;;;;;;5032663;28;20033;-77
2020/12/17 05:12:05;;;;;;;39.22;19.10;;;8.00;93.10;;;;;;5034926;28;20028;-76
2020/12/17 05:14:31;;;;;;;35.65;19.58;;;8.00;93.10;;;;;;5035074;28;20029;-75
2020/12/17 05:16:57;;;;;;;35.15;18.63;;;8.10;93.00;;;;;;5035908;28;20033;-75
2020/12/17 05:19:24;;;;;;;40.53;20.40;;;8.00;92.90;;;;;;5019869;28;20503;-75
2020/12/17 05:21:54;;;;;;;34.40;19.70;;;8.00;93.00;;;;;;5018109;28;20021;-75
2020/12/17 05:24:24;;;;;;;37.13;19.75;;;8.00;93.00;;;;;;5024546;28;20032;-75
2020/12/17 05:26:52;;;;;;;36.17;18.77;;;8.00;92.90;;;;;;5014341;28;20056;-75
2020/12/17 05:29:20;;;;;;;39.78;19.45;;;8.00;93.20;;;;;;5017999;28;20104;-76
2020/12/17 05:31:46;;;;;;;34.28;18.40;;;8.00;92.90;;;;;;5008274;28;20018;-76
2020/12/17 05:34:13;;;;;;;32.92;17.70;;;8.00;93.20;;;;;;5018772;28;20025;-75
2020/12/17 05:36:49;;;;;;;30.33;17.20;;;8.00;92.80;;;;;;5036145;28;20099;-75
2020/12/17 05:39:16;;;;;;;35.10;18.33;;;8.00;92.90;;;;;;5034947;28;20508;-75
2020/12/17 05:41:45;;;;;;;34.33;18.35;;;8.00;92.90;;;;;;5034858;28;20017;-75
2020/12/17 05:44:33;;;;;;;33.03;18.67;;;8.00;92.90;;;;;;5033820;28;20065;-75
2020/12/17 05:46:59;;;;;;;36.42;19.20;;;8.00;92.90;;;;;;5030156;28;20044;-76
2020/12/17 05:49:29;;;;;;;34.28;18.38;;;8.00;92.70;;;;;;5060836;28;20074;-76
2020/12/17 05:52:15;;;;;;;35.90;17.87;;;8.00;92.90;;;;;;5052784;28;20071;-76
2020/12/17 05:55:01;;;;;;;30.85;17.38;;;8.00;92.70;;;;;;5039064;28;20290;-76
2020/12/17 05:57:28;;;;;;;34.45;17.48;;;8.00;92.70;;;;;;5046956;28;20101;-76
2020/12/17 06:00:02;;;;;;;31.73;17.55;;;8.00;92.60;;;;;;5016867;28;20113;-76
2020/12/17 06:02:32;;;;;;;34.60;18.48;;;8.00;92.80;;;;;;5031141;28;20411;-76
2020/12/17 06:05:08;;;;;;;31.90;17.73;;;8.00;92.80;;;;;;5026568;28;20032;-76
2020/12/17 06:07:47;;;;;;;33.13;18.60;;;8.00;92.90;;;;;;5030505;28;20037;-76
2020/12/17 06:10:30;;;;;;;32.50;17.70;;;8.00;92.80;;;;;;5046891;28;20121;-76
2020/12/17 06:13:00;;;;;;;31.70;17.63;;;8.00;92.70;;;;;;5027454;28;20032;-76
2020/12/17 06:15:31;;;;;;;31.42;17.80;;;8.00;92.80;;;;;;5035578;28;20020;-76
2020/12/17 06:18:01;;;;;;;32.80;18.37;;;8.00;92.80;;;;;;5053698;28;20500;-78
2020/12/17 06:20:32;;;;;;;31.40;17.70;;;8.00;92.80;;;;;;5028930;28;20029;-76
2020/12/17 06:22:57;;;;;;;33.45;16.63;;;8.00;92.70;;;;;;5030094;28;20033;-77
2020/12/17 06:25:28;;;;;;;32.53;17.80;;;8.00;92.70;;;;;;5030573;28;20040;-76
2020/12/17 06:27:54;;;;;;;29.70;16.67;;;8.00;92.90;;;;;;5018678;28;20033;-76
2020/12/17 06:30:25;;;;;;;35.78;18.48;;;8.00;92.70;;;;;;5013476;28;20067;-77
2020/12/17 06:32:58;;;;;;;33.92;18.02;;;8.00;92.80;;;;;;5034834;28;20112;-75
2020/12/17 06:35:39;;;;;;;32.70;17.92;;;8.00;92.70;;;;;;5035709;28;20028;-77
2020/12/17 06:38:11;;;;;;;32.35;18.33;;;8.00;92.80;;;;;;5038547;28;20090;-77
2020/12/17 06:40:38;;;;;;;34.15;18.88;;;8.00;92.70;;;;;;5037925;28;20034;-77
2020/12/17 06:43:11;;;;;;;35.45;18.95;;;8.00;92.70;;;;;;5058066;28;20036;-77
2020/12/17 06:45:37;;;;;;;32.40;17.70;;;8.00;92.70;;;;;;5055697;28;20040;-78
2020/12/17 06:48:30;;;;;;;33.60;17.63;;;8.00;92.70;;;;;;5030893;28;20033;-78
2020/12/17 06:50:56;;;;;;;36.50;19.05;;;8.00;92.70;;;;;;5047557;28;20124;-78
2020/12/17 06:53:39;;;;;;;30.88;17.13;;;8.00;92.70;;;;;;5012079;28;20576;-76
2020/12/17 06:56:15;;;;;;;32.92;17.55;;;8.00;92.70;;;;;;5022833;28;20021;-76
2020/12/17 06:58:44;;;;;;;29.55;17.23;;;8.00;92.60;;;;;;5021884;28;20029;-79
2020/12/17 07:01:29;;;;;;;30.70;17.65;;;8.00;92.70;;;;;;5022124;28;20029;-78
2020/12/17 07:03:55;;;;;;;36.35;18.55;;;8.00;92.60;;;;;;5040574;28;20071;-78
2020/12/17 07:06:25;;;;;;;31.83;16.83;;;8.00;92.60;;;;;;5039866;28;20033;-79
2020/12/17 07:08:53;;;;;;;33.72;17.15;;;8.00;92.70;;;;;;5013311;28;20128;-77
2020/12/17 07:11:40;;;;;;;32.33;17.95;;;8.00;92.80;;;;;;5029935;28;20113;-77
2020/12/17 07:14:11;;;;;;;33.92;17.85;;;8.00;92.80;;;;;;5017287;28;20037;-77
2020/12/17 07:16:37;;;;;;;36.35;18.30;;;8.00;92.80;;;;;;5051955;28;20185;-78
2020/12/17 07:19:22;;;;;;;35.30;18.60;;;8.10;92.70;;;;;;5012121;28;20033;-78
2020/12/17 07:22:01;;;;;;;32.22;17.08;;;8.10;92.70;;;;;;5017693;28;20021;-76
2020/12/17 07:24:39;;;;;;;33.40;17.48;;;8.00;92.60;;;;;;5051425;28;20037;-78
2020/12/17 07:27:21;;;;;;;32.22;17.65;;;8.00;92.70;;;;;;5033242;28;20024;-79
2020/12/17 07:30:01;;;;;;;30.35;17.17;;;8.00;92.70;;;;;;5035312;28;20522;-76
2020/12/17 07:32:32;;;;;;;33.00;17.63;;;8.00;92.70;;;;;;5018056;28;20082;-77
2020/12/17 07:35:08;;;;;;;;;;;8.10;92.60;;;;;;5014405;28;20036;-76
2020/12/17 07:37:35;;;;;;;27.90;16.02;;;8.10;92.50;;;;;;5032433;28;19917;-78
2020/12/17 07:40:20;;;;;;;30.17;16.75;;;8.10;92.50;;;;;;5028621;28;20045;-77
2020/12/17 07:43:06;;;;;;;30.50;16.77;;;8.10;92.40;;;;;;5034131;28;20024;-78
2020/12/17 07:45:56;;;;;;;30.75;16.58;;;8.10;92.40;;;;;;5011724;28;20037;-77
2020/12/17 07:48:31;;;;;;;26.95;16.23;;;8.10;92.50;;;;;;5035435;28;20033;-79
2020/12/17 07:50:57;;;;;;;30.15;16.65;;;8.10;92.60;;;;;;5049836;28;20059;-78
2020/12/17 07:53:24;;;;;;;29.40;16.23;;;8.10;92.60;;;;;;5023510;28;20411;-80
2020/12/17 07:55:54;;;;;;;29.83;15.48;;;8.00;92.60;;;;;;5033907;28;20033;-77
2020/12/17 07:58:20;;;;;;;32.17;16.98;;;8.00;92.60;;;;;;5018561;28;20033;-77
2020/12/17 08:00:46;;;;;;;28.67;16.52;;;8.10;92.70;;;;;;5027668;28;20096;-76
2020/12/17 08:03:12;;;;;;;29.73;16.85;;;8.10;92.70;;;;;;5027182;28;20056;-77
2020/12/17 08:05:41;;;;;;;29.70;15.85;;;8.10;92.80;;;;;;5056082;28;20649;-75
2020/12/17 08:08:07;;;;;;;28.05;15.55;;;8.10;92.90;;;;;;5057267;28;20028;-78
2020/12/17 08:10:39;;;;;;;28.17;15.93;;;8.10;93.00;;;;;;5031145;28;20032;-78
2020/12/17 08:13:06;;;;;;;27.88;15.45;;;8.20;92.80;;;;;;5039845;28;20024;-76
2020/12/17 08:15:32;;;;;;;25.67;14.60;;;8.20;92.90;;;;;;5017119;28;20521;-78
2020/12/17 08:18:02;;;;;;;30.88;16.58;;;8.20;92.90;;;;;;5019926;28;20036;-79
2020/12/17 08:21:07;;;;;;;31.17;16.30;;;8.20;93.00;;;;;;5020318;28;20028;-77
2020/12/17 08:23:35;;;;;;;26.42;14.48;;;8.20;92.90;;;;;;5019433;28;20040;-79
2020/12/17 08:26:07;;;;;;;24.45;14.65;;;8.30;92.70;;;;;;5031752;28;20075;-78
2020/12/17 08:28:36;;;;;;;25.35;14.55;;;8.30;92.60;;;;;;5029309;28;20450;-77
2020/12/17 08:31:10;;;;;;;26.90;14.40;;;8.40;92.60;;;;;;5031620;28;20100;-77
2020/12/17 08:33:44;;;;;;;24.45;14.55;;;8.40;92.60;;;;;;5030969;28;20032;-78
2020/12/17 08:36:13;;;;;;;25.67;15.30;;;8.40;92.70;;;;;;5029933;28;20052;-78
2020/12/17 08:38:39;;;;;;;24.48;14.90;;;8.40;92.80;;;;;;5017243;28;20025;-76
2020/12/17 08:41:06;;;;;;;28.25;14.43;;;8.40;92.80;;;;;;5036507;28;20080;-79
2020/12/17 08:43:46;;;;;;;25.05;14.07;;;8.40;92.80;;;;;;5017760;28;20474;-77
2020/12/17 08:46:17;;;;;;;22.95;13.40;;;8.40;92.70;;;;;;5022577;28;20454;-77
2020/12/17 08:48:44;;;;;;;25.45;13.82;;;8.50;92.60;;;;;;5029318;28;20543;-78
2020/12/17 08:51:12;;;;;;;25.83;14.57;;;8.40;92.60;;;;;;5048678;28;20105;-77
2020/12/17 08:53:43;;;;;;;26.52;14.38;;;8.50;92.60;;;;;;5032004;28;20021;-77
2020/12/17 08:56:12;;;;;;;;;;;8.60;93.40;;;;;;5036361;28;20492;-77
2020/12/17 08:58:52;;;;;;;23.48;13.55;;;8.70;92.40;;;;;;5020762;28;19920;-76
2020/12/17 09:01:27;;;;;;;23.17;12.45;;;8.80;92.00;;;;;;5018096;28;20115;-78
2020/12/17 09:03:54;;;;;;;27.02;14.18;;;8.80;91.90;;;;;;5023213;28;20175;-76
2020/12/17 09:06:29;;;;;;;22.40;13.27;;;8.80;91.80;;;;;;5013643;28;20033;-77
2020/12/17 09:09:18;;;;;;;23.88;13.05;;;8.80;91.90;;;;;;5029028;28;20171;-76
2020/12/17 09:11:47;;;;;;;23.27;14.07;;;8.80;91.90;;;;;;5014448;28;20032;-77
2020/12/17 09:14:19;;;;;;;20.35;13.02;;;8.80;91.90;;;;;;5025522;28;20030;-78
2020/12/17 09:16:46;;;;;;;25.25;14.52;;;8.80;91.90;;;;;;5038613;28;20066;-78
2020/12/17 09:19:12;;;;;;;25.45;13.15;;;8.80;91.90;;;;;;5038514;28;20020;-78
2020/12/17 09:22:00;;;;;;;20.17;11.85;;;8.90;92.00;;;;;;5024434;28;20042;-78
2020/12/17 09:24:34;;;;;;;22.17;12.45;;;8.90;92.00;;;;;;5035735;28;20035;-76
2020/12/17 09:27:20;;;;;;;21.85;12.98;;;8.90;92.10;;;;;;5034840;28;20040;-76
2020/12/17 09:30:08;;;;;;;22.70;12.63;;;8.90;92.00;;;;;;5032693;28;20029;-76
2020/12/17 09:32:35;;;;;;;21.45;12.15;;;8.90;92.30;;;;;;5038744;28;20369;-77
2020/12/17 09:35:13;;;;;;;22.08;12.40;;;8.90;92.30;;;;;;5020216;28;20043;-78
2020/12/17 09:37:41;;;;;;;20.75;12.60;;;9.00;92.40;;;;;;5022578;28;20049;-77
2020/12/17 09:40:09;;;;;;;22.50;12.70;;;9.00;92.30;;;;;;5041182;28;20069;-76
2020/12/17 09:42:35;;;;;;;21.75;12.65;;;9.00;92.40;;;;;;5052259;28;20029;-75
2020/12/17 09:45:17;;;;;;;23.98;12.60;;;9.00;93.10;;;;;;5030959;28;20037;-77
2020/12/17 09:47:44;;;;;;;21.98;13.43;;;9.10;92.40;;;;;;5022121;28;20919;-77
2020/12/17 09:50:17;;;;;;;22.50;12.23;;;9.00;92.50;;;;;;5035387;28;20033;-77
2020/12/17 09:52:44;;;;;;;22.65;12.27;;;9.00;92.80;;;;;;5027937;28;20029;-75
2020/12/17 09:55:14;;;;;;;22.17;12.77;;;9.10;92.70;;;;;;5027847;28;20037;-75
2020/12/17 09:57:45;;;;;;;25.27;13.30;;;9.10;92.80;;;;;;5027802;28;20060;-76
2020/12/17 10:00:14;;;;;;;21.65;12.73;;;9.20;92.50;;;;;;5014527;28;20032;-76
2020/12/17 10:02:41;;;;;;;23.38;13.43;;;9.20;92.50;;;;;;5044211;28;20028;-74
2020/12/17 10:05:09;;;;;;;21.70;13.05;;;9.20;92.50;;;;;;5013197;28;20040;-77
2020/12/17 10:07:35;;;;;;;24.33;14.63;;;9.10;92.70;;;;;;5026543;28;20071;-78
2020/12/17 10:10:01;;;;;;;24.65;14.38;;;9.10;93.00;;;;;;5027332;28;20484;-76
2020/12/17 10:12:27;;;;;;;21.58;12.90;;;9.10;93.00;;;;;;5026188;28;20025;-76
2020/12/17 10:14:53;;;;;;;20.88;13.80;;;9.20;93.00;;;;;;5013077;28;20033;-75
2020/12/17 10:17:18;;;;;;;23.10;13.15;;;9.20;93.00;;;;;;5030815;28;20670;-76
2020/12/17 10:19:44;;;;;;;21.80;13.25;;;9.20;92.80;;;;;;5025704;28;20063;-76
2020/12/17 10:22:10;;;;;;;22.20;12.98;;;9.20;92.80;;;;;;5044002;28;20029;-77
2020/12/17 10:24:36;;;;;;;24.42;13.93;;;9.20;92.90;;;;;;5026324;28;20035;-75
2020/12/17 10:27:02;;;;;;;22.27;12.93;;;9.20;93.20;;;;;;5016891;28;20037;-77
2020/12/17 10:29:29;;;;;;;21.13;12.45;;;9.30;93.10;;;;;;5033658;28;20025;-75
2020/12/17 10:31:55;;;;;;;25.38;14.18;;;9.30;93.10;;;;;;5020062;28;20021;-77
2020/12/17 10:34:21;;;;;;;28.17;14.15;;;9.20;93.60;;;;;;5033692;28;20027;-76
2020/12/17 10:36:47;;;;;;;24.15;13.80;;;9.20;93.60;;;;;;5045964;28;20029;-74
2020/12/17 10:39:13;;;;;;;22.98;13.48;;;9.30;93.70;;;;;;5026153;28;20021;-76
2020/12/17 10:41:39;;;;;;;26.58;15.27;;;9.30;93.70;;;;;;5015277;28;20048;-75
2020/12/17 10:44:06;;;;;;;24.65;14.18;;;9.30;93.90;;;;;;5030331;28;20024;-75
2020/12/17 10:46:32;;;;;;;23.67;14.80;;;9.20;94.00;;;;;;5005357;28;20060;-75
2020/12/17 10:49:01;;;;;;;24.77;14.07;;;9.30;94.10;;;;;;5030352;28;20098;-74
2020/12/17 10:51:27;;;;;;;26.13;14.00;;;9.20;94.10;;;;;;5029404;28;20048;-75
2020/12/17 10:53:53;;;;;;;27.15;14.40;;;9.30;94.10;;;;;;5028593;28;20488;-74
2020/12/17 10:56:19;;;;;;;28.35;15.48;;;9.30;94.20;;;;;;5009661;28;20078;-76
2020/12/17 10:58:47;;;;;;;25.23;14.75;;;9.20;94.40;;;;;;5026746;28;20035;-75
2020/12/17 11:01:13;;;;;;;26.70;15.02;;;9.20;94.60;;;;;;5027568;28;20047;-76
2020/12/17 11:03:39;;;;;;;23.42;15.20;;;9.20;94.60;;;;;;5027162;28;20489;-75
2020/12/17 11:06:04;;;;;;;22.13;14.43;;;9.20;94.70;;;;;;5026252;28;20034;-75
2020/12/17 11:08:30;;;;;;;24.85;15.00;;;9.20;94.80;;;;;;5008627;28;20396;-74
2020/12/17 11:10:56;;;;;;;27.17;14.95;;;9.20;94.80;;;;;;5015887;28;20575;-76
2020/12/17 11:13:22;;;;;;;24.90;15.18;;;9.30;94.40;;;;;;5026922;28;20063;-74
2020/12/17 11:15:49;;;;;;;25.65;15.43;;;9.30;94.50;;;;;;5024510;28;20067;-76
2020/12/17 11:18:15;;;;;;;24.95;14.57;;;9.30;94.60;;;;;;5011058;28;20028;-76
2020/12/17 11:20:43;;;;;;;26.73;15.43;;;9.30;94.60;;;;;;5031228;28;20408;-76
2020/12/17 11:23:08;;;;;;;25.83;15.23;;;9.30;94.70;;;;;;5017507;28;20032;-77
2020/12/17 11:25:37;;;;;;;26.90;14.88;;;9.30;94.70;;;;;;5024677;28;20029;-78
2020/12/17 11:28:07;;;;;;;23.75;14.57;;;9.30;94.70;;;;;;5048000;28;20052;-78
2020/12/17 11:30:34;;;;;;;25.85;14.23;;;9.30;94.60;;;;;;5036253;28;20055;-77
2020/12/17 11:33:00;;;;;;;22.23;13.63;;;9.30;94.50;;;;;;5035717;28;20503;-78
2020/12/17 11:35:25;;;;;;;23.17;13.90;;;9.40;94.50;;;;;;5035471;28;20020;-78
2020/12/17 11:37:52;;;;;;;21.83;14.73;;;9.40;94.50;;;;;;5033962;28;20025;-78
2020/12/17 11:40:22;;;;;;;23.75;14.82;;;9.30;94.60;;;;;;5017397;28;20021;-73
2020/12/17 11:42:48;;;;;;;21.38;14.07;;;9.30;94.60;;;;;;5012525;28;20029;-74
2020/12/17 11:45:15;;;;;;;20.83;13.70;;;9.30;94.60;;;;;;5030812;28;20037;-77
2020/12/17 11:47:41;;;;;;;21.83;14.48;;;9.40;94.60;;;;;;5013746;28;20032;-77
2020/12/17 11:50:07;;;;;;;21.27;13.77;;;9.40;94.50;;;;;;5031132;28;20503;-78
2020/12/17 11:52:33;;;;;;;24.05;14.85;;;9.40;94.60;;;;;;5024561;28;20029;-78
2020/12/17 11:55:00;;;;;;;25.63;15.63;;;9.40;94.60;;;;;;5031855;28;20040;-78
2020/12/17 11:57:26;;;;;;;24.35;13.95;;;9.30;94.70;;;;;;5024768;28;20423;-78
2020/12/17 11:59:52;;;;;;;26.13;13.93;;;9.40;94.60;;;;;;5049806;28;20025;-76
2020/12/17 12:02:18;;;;;;;24.48;15.02;;;9.40;94.60;;;;;;5017108;28;20028;-78
2020/12/17 12:04:44;;;;;;;22.48;15.13;;;9.30;94.70;;;;;;5013766;28;20078;-75
2020/12/17 12:07:12;;;;;;;21.73;14.25;;;9.30;94.70;;;;;;5031765;28;20060;-76
2020/12/17 12:09:38;;;;;;;21.75;13.43;;;9.30;94.70;;;;;;5036138;28;20028;-77
2020/12/17 12:12:04;;;;;;;19.27;12.82;;;9.40;94.50;;;;;;5015682;28;20029;-75
2020/12/17 12:14:29;;;;;;;21.45;13.57;;;9.40;94.50;;;;;;5019899;28;20021;-76
2020/12/17 12:16:55;;;;;;;25.17;15.30;;;9.40;94.50;;;;;;5029658;28;20026;-78
2020/12/17 12:19:21;;;;;;;22.90;15.07;;;9.40;94.60;;;;;;5042353;28;20033;-76
2020/12/17 12:21:51;;;;;;;19.23;13.32;;;9.40;94.70;;;;;;5040470;28;20112;-76
2020/12/17 12:24:17;;;;;;;23.10;14.48;;;9.30;94.70;;;;;;5028324;28;20029;-76
2020/12/17 12:26:43;;;;;;;21.10;13.90;;;9.40;94.80;;;;;;5036250;28;20025;-75
2020/12/17 12:29:10;;;;;;;21.58;13.25;;;9.40;94.70;;;;;;5059347;28;20040;-76
2020/12/17 12:31:36;;;;;;;20.33;13.57;;;9.40;94.60;;;;;;5031927;28;20044;-77
2020/12/17 12:34:04;;;;;;;20.95;13.70;;;9.40;94.60;;;;;;5012706;28;20107;-76
2020/12/17 12:36:35;;;;;;;19.20;13.25;;;9.40;94.80;;;;;;5036235;28;20384;-78
2020/12/17 12:39:02;;;;;;;22.60;14.63;;;9.40;95.00;;;;;;5015365;28;20078;-77
2020/12/17 12:41:28;;;;;;;16.73;12.15;;;9.40;94.90;;;;;;5033270;28;20021;-76
2020/12/17 12:43:53;;;;;;;20.58;12.85;;;9.40;94.80;;;;;;5033544;28;20520;-77
2020/12/17 12:46:19;;;;;;;248.65;119.72;;;9.40;94.70;;;;;;5025096;28;20021;-76